createdAt,value
2018-05-01T00:00:55.207Z,990.33
2018-05-01T00:01:55.158Z,990.26
2018-05-01T00:02:55.107Z,990.23
2018-05-01T00:03:55.080Z,990.39
2018-05-01T00:04:55.010Z,990.30
2018-05-01T00:05:54.961Z,990.35
2018-05-01T00:06:54.910Z,990.38
2018-05-01T00:07:54.868Z,990.39
2018-05-01T00:08:54.836Z,990.41
2018-05-01T00:09:54.761Z,990.29
2018-05-01T00:10:54.714Z,990.33
2018-05-01T00:11:54.664Z,990.36
2018-05-01T00:12:54.619Z,990.32
2018-05-01T00:13:54.592Z,990.41
2018-05-01T00:14:54.517Z,990.42
2018-05-01T00:15:54.468Z,990.42
2018-05-01T00:16:54.423Z,990.41
2018-05-01T00:17:54.371Z,990.45
2018-05-01T00:18:54.343Z,990.40
2018-05-01T00:19:54.273Z,990.45
2018-05-01T00:20:54.228Z,990.42
2018-05-01T00:21:54.173Z,990.48
2018-05-01T00:22:54.123Z,990.43
2018-05-01T00:23:54.098Z,990.44
2018-05-01T00:24:54.031Z,990.43
2018-05-01T00:25:53.979Z,990.47
2018-05-01T00:26:53.932Z,990.45
2018-05-01T00:27:53.883Z,990.49
2018-05-01T00:28:53.855Z,990.49
2018-05-01T00:29:53.781Z,990.51
2018-05-01T00:30:53.732Z,990.49
2018-05-01T00:31:53.688Z,990.45
2018-05-01T00:32:53.637Z,990.54
2018-05-01T00:33:53.610Z,990.55
2018-05-01T00:34:53.540Z,990.53
2018-05-01T00:35:53.487Z,990.50
2018-05-01T00:36:53.440Z,990.58
2018-05-01T00:37:53.390Z,990.63
2018-05-01T00:38:53.370Z,990.70
2018-05-01T00:39:53.294Z,990.63
2018-05-01T00:40:53.245Z,990.64
2018-05-01T00:41:53.191Z,990.69
2018-05-01T00:42:53.150Z,990.82
2018-05-01T00:43:53.120Z,990.70
2018-05-01T00:44:53.046Z,990.71
2018-05-01T00:45:52.999Z,990.84
2018-05-01T00:46:52.952Z,990.79
2018-05-01T00:47:52.899Z,990.63
2018-05-01T00:48:52.877Z,990.80
2018-05-01T00:49:52.801Z,990.70
2018-05-01T00:50:52.753Z,990.78
2018-05-01T00:51:52.705Z,990.76
2018-05-01T00:52:52.653Z,990.86
2018-05-01T00:53:52.633Z,990.88
2018-05-01T00:54:52.558Z,990.87
2018-05-01T00:55:52.506Z,990.84
2018-05-01T00:56:52.460Z,990.91
2018-05-01T00:57:52.414Z,990.81
2018-05-01T00:58:52.388Z,990.95
2018-05-01T00:59:52.310Z,990.92
2018-05-01T01:00:52.262Z,991.05
2018-05-01T01:01:52.221Z,991.01
2018-05-01T01:02:52.162Z,990.89
2018-05-01T01:03:52.138Z,990.96
2018-05-01T01:04:52.064Z,991.02
2018-05-01T01:05:52.026Z,990.91
2018-05-01T01:06:51.967Z,990.91
2018-05-01T01:07:51.914Z,990.90
2018-05-01T01:08:59.423Z,991.00
2018-05-01T01:09:51.813Z,991.01
2018-05-01T01:10:51.762Z,991.06
2018-05-01T01:11:51.713Z,991.08
2018-05-01T01:12:51.666Z,991.01
2018-05-01T01:13:51.642Z,991.16
2018-05-01T01:14:51.567Z,991.10
2018-05-01T01:15:51.517Z,991.10
2018-05-01T01:16:51.464Z,991.11
2018-05-01T01:17:51.420Z,991.08
2018-05-01T01:18:51.394Z,991.16
2018-05-01T01:19:51.325Z,991.12
2018-05-01T01:20:51.269Z,991.07
2018-05-01T01:21:51.222Z,991.09
2018-05-01T01:22:51.169Z,991.17
2018-05-01T01:23:51.141Z,991.16
2018-05-01T01:24:51.070Z,990.99
2018-05-01T01:25:51.019Z,991.09
2018-05-01T01:26:50.973Z,991.08
2018-05-01T01:27:50.929Z,991.28
2018-05-01T01:28:50.894Z,991.20
2018-05-01T01:29:50.821Z,991.18
2018-05-01T01:30:50.772Z,991.19
2018-05-01T01:31:50.725Z,991.24
2018-05-01T01:32:50.679Z,991.24
2018-05-01T01:33:50.648Z,991.24
2018-05-01T01:34:50.572Z,991.28
2018-05-01T01:35:50.527Z,991.23
2018-05-01T01:36:50.474Z,991.34
2018-05-01T01:37:50.425Z,991.28
2018-05-01T01:38:50.397Z,991.25
2018-05-01T01:39:50.330Z,991.23
2018-05-01T01:40:50.276Z,991.40
2018-05-01T01:41:50.230Z,991.36
2018-05-01T01:42:50.178Z,991.32
2018-05-01T01:43:50.146Z,991.34
2018-05-01T01:44:50.076Z,991.34
2018-05-01T01:45:50.026Z,991.47
2018-05-01T01:46:49.974Z,991.39
2018-05-01T01:47:49.927Z,991.36
2018-05-01T01:48:49.895Z,991.39
2018-05-01T01:49:49.830Z,991.35
2018-05-01T01:50:49.775Z,991.43
2018-05-01T01:51:49.725Z,991.43
2018-05-01T01:52:49.674Z,991.38
2018-05-01T01:53:49.646Z,991.40
2018-05-01T01:54:49.575Z,991.43
2018-05-01T01:55:49.523Z,991.35
2018-05-01T01:56:49.474Z,991.44
2018-05-01T01:57:49.424Z,991.37
2018-05-01T01:58:49.395Z,991.45
2018-05-01T01:59:49.321Z,991.49
2018-05-01T02:00:49.277Z,991.44
2018-05-01T02:01:49.222Z,991.56
2018-05-01T02:02:49.172Z,991.50
2018-05-01T02:03:49.143Z,991.51
2018-05-01T02:04:49.074Z,991.39
2018-05-01T02:05:49.024Z,991.51
2018-05-01T02:06:48.972Z,991.52
2018-05-01T02:07:48.920Z,991.53
2018-05-01T02:08:48.891Z,991.52
2018-05-01T02:09:48.829Z,991.54
2018-05-01T02:10:48.769Z,991.54
2018-05-01T02:11:48.722Z,991.50
2018-05-01T02:12:48.667Z,991.57
2018-05-01T02:13:48.642Z,991.53
2018-05-01T02:14:48.570Z,991.50
2018-05-01T02:15:48.516Z,991.54
2018-05-01T02:16:48.466Z,991.54
2018-05-01T02:17:48.417Z,991.55
2018-05-01T02:18:48.389Z,991.59
2018-05-01T02:19:48.315Z,991.40
2018-05-01T02:20:48.266Z,991.54
2018-05-01T02:21:48.215Z,991.59
2018-05-01T02:22:48.167Z,991.57
2018-05-01T02:23:48.136Z,991.57
2018-05-01T02:24:48.066Z,991.61
2018-05-01T02:25:48.011Z,991.68
2018-05-01T02:26:47.961Z,991.62
2018-05-01T02:27:47.912Z,991.62
2018-05-01T02:28:47.879Z,991.66
2018-05-01T02:29:47.807Z,991.66
2018-05-01T02:30:47.759Z,991.64
2018-05-01T02:31:47.710Z,991.58
2018-05-01T02:32:47.659Z,991.60
2018-05-01T02:33:47.606Z,991.63
2018-05-01T02:34:47.579Z,991.72
2018-05-01T02:35:47.508Z,991.70
2018-05-01T02:36:47.471Z,991.67
2018-05-01T02:37:47.411Z,991.65
2018-05-01T02:38:47.355Z,991.56
2018-05-01T02:39:47.323Z,991.59
2018-05-01T02:40:47.255Z,991.63
2018-05-01T02:41:47.199Z,991.69
2018-05-01T02:42:47.149Z,991.91
2018-05-01T02:43:47.096Z,991.78
2018-05-01T02:44:47.069Z,991.78
2018-05-01T02:45:46.997Z,991.81
2018-05-01T02:46:46.949Z,991.73
2018-05-01T02:47:46.894Z,991.75
2018-05-01T02:48:46.847Z,991.75
2018-05-01T02:49:46.816Z,991.77
2018-05-01T02:50:46.745Z,991.72
2018-05-01T02:51:46.693Z,991.67
2018-05-01T02:52:46.642Z,991.72
2018-05-01T02:53:46.595Z,991.80
2018-05-01T02:54:46.560Z,991.73
2018-05-01T02:55:46.492Z,991.81
2018-05-01T02:56:46.443Z,991.84
2018-05-01T02:57:46.386Z,991.69
2018-05-01T02:58:46.340Z,991.77
2018-05-01T02:59:46.306Z,991.73
2018-05-01T03:00:46.236Z,991.82
2018-05-01T03:01:46.187Z,991.90
2018-05-01T03:02:46.131Z,991.90
2018-05-01T03:03:46.084Z,991.91
2018-05-01T03:04:46.050Z,991.79
2018-05-01T03:05:45.980Z,991.77
2018-05-01T03:06:45.928Z,991.75
2018-05-01T03:07:45.878Z,991.86
2018-05-01T03:08:45.828Z,991.91
2018-05-01T03:09:45.798Z,991.82
2018-05-01T03:10:45.726Z,991.91
2018-05-01T03:11:45.671Z,991.86
2018-05-01T03:12:45.622Z,991.89
2018-05-01T03:13:45.571Z,991.94
2018-05-01T03:14:45.540Z,991.82
2018-05-01T03:15:45.468Z,991.87
2018-05-01T03:16:45.415Z,991.92
2018-05-01T03:17:45.367Z,991.91
2018-05-01T03:18:45.318Z,991.96
2018-05-01T03:19:45.284Z,991.84
2018-05-01T03:20:45.213Z,991.86
2018-05-01T03:21:45.163Z,991.84
2018-05-01T03:22:45.108Z,991.99
2018-05-01T03:23:45.058Z,991.83
2018-05-01T03:24:45.030Z,991.93
2018-05-01T03:25:44.956Z,991.89
2018-05-01T03:26:44.908Z,991.95
2018-05-01T03:27:44.852Z,991.92
2018-05-01T03:28:44.806Z,991.89
2018-05-01T03:29:44.775Z,991.85
2018-05-01T03:30:44.703Z,991.90
2018-05-01T03:31:44.650Z,991.89
2018-05-01T03:32:44.596Z,991.89
2018-05-01T03:33:44.547Z,991.96
2018-05-01T03:34:44.518Z,991.94
2018-05-01T03:35:44.444Z,991.83
2018-05-01T03:36:44.395Z,991.91
2018-05-01T03:37:44.352Z,991.95
2018-05-01T03:38:44.295Z,991.94
2018-05-01T03:39:44.259Z,992.03
2018-05-01T03:40:44.193Z,991.95
2018-05-01T03:41:44.136Z,992.00
2018-05-01T03:42:44.084Z,992.03
2018-05-01T03:43:44.035Z,992.03
2018-05-01T03:44:44.005Z,992.11
2018-05-01T03:45:43.932Z,992.06
2018-05-01T03:46:43.879Z,992.20
2018-05-01T03:47:43.832Z,992.11
2018-05-01T03:48:43.777Z,992.12
2018-05-01T03:49:43.757Z,992.12
2018-05-01T03:50:43.676Z,992.13
2018-05-01T03:51:43.626Z,992.13
2018-05-01T03:52:43.575Z,992.13
2018-05-01T03:53:43.550Z,992.11
2018-05-01T03:54:43.493Z,992.20
2018-05-01T03:55:43.419Z,992.16
2018-05-01T03:56:43.370Z,992.12
2018-05-01T03:57:43.321Z,992.16
2018-05-01T03:58:43.266Z,992.20
2018-05-01T03:59:43.232Z,992.22
2018-05-01T04:00:43.165Z,992.22
2018-05-01T04:01:43.113Z,992.14
2018-05-01T04:02:43.063Z,992.29
2018-05-01T04:03:43.010Z,992.09
2018-05-01T04:04:42.982Z,992.29
2018-05-01T04:05:42.905Z,992.24
2018-05-01T04:06:42.859Z,992.28
2018-05-01T04:07:42.802Z,992.23
2018-05-01T04:08:42.752Z,992.30
2018-05-01T04:09:42.722Z,992.33
2018-05-01T04:10:42.649Z,992.34
2018-05-01T04:11:42.598Z,992.34
2018-05-01T04:12:42.548Z,992.34
2018-05-01T04:13:42.498Z,992.35
2018-05-01T04:14:42.464Z,992.33
2018-05-01T04:15:42.392Z,992.36
2018-05-01T04:16:42.341Z,992.39
2018-05-01T04:17:42.288Z,992.43
2018-05-01T04:18:42.240Z,992.42
2018-05-01T04:19:42.208Z,992.44
2018-05-01T04:20:42.134Z,992.42
2018-05-01T04:21:42.083Z,992.44
2018-05-01T04:22:42.031Z,992.46
2018-05-01T04:23:41.989Z,992.53
2018-05-01T04:24:41.952Z,992.46
2018-05-01T04:25:41.878Z,992.44
2018-05-01T04:26:41.826Z,992.62
2018-05-01T04:27:41.776Z,992.59
2018-05-01T04:28:41.723Z,992.58
2018-05-01T04:29:41.695Z,992.53
2018-05-01T04:30:41.619Z,992.52
2018-05-01T04:31:41.572Z,992.51
2018-05-01T04:32:41.521Z,992.61
2018-05-01T04:33:41.472Z,992.51
2018-05-01T04:34:41.437Z,992.56
2018-05-01T04:35:41.362Z,992.57
2018-05-01T04:36:41.315Z,992.64
2018-05-01T04:37:41.265Z,992.63
2018-05-01T04:38:41.214Z,992.60
2018-05-01T04:39:41.181Z,992.61
2018-05-01T04:40:41.109Z,992.63
2018-05-01T04:41:41.058Z,992.67
2018-05-01T04:42:41.008Z,992.70
2018-05-01T04:43:40.955Z,992.71
2018-05-01T04:44:40.927Z,992.69
2018-05-01T04:45:40.853Z,992.72
2018-05-01T04:46:40.801Z,992.66
2018-05-01T04:47:40.749Z,992.80
2018-05-01T04:48:40.700Z,992.70
2018-05-01T04:49:40.668Z,992.76
2018-05-01T04:50:40.596Z,992.81
2018-05-01T04:51:40.595Z,992.82
2018-05-01T04:52:40.493Z,992.76
2018-05-01T04:53:40.444Z,992.95
2018-05-01T04:54:40.412Z,992.81
2018-05-01T04:55:40.341Z,992.86
2018-05-01T04:56:40.291Z,992.92
2018-05-01T04:57:40.234Z,992.92
2018-05-01T04:58:40.184Z,992.88
2018-05-01T04:59:40.156Z,992.91
2018-05-01T05:00:40.082Z,992.91
2018-05-01T05:01:40.033Z,992.88
2018-05-01T05:02:39.978Z,992.95
2018-05-01T05:03:39.930Z,992.98
2018-05-01T05:04:39.906Z,992.87
2018-05-01T05:05:39.829Z,992.99
2018-05-01T05:06:39.773Z,992.96
2018-05-01T05:07:39.719Z,993.00
2018-05-01T05:08:39.671Z,993.01
2018-05-01T05:09:39.644Z,992.94
2018-05-01T05:10:39.566Z,993.02
2018-05-01T05:11:39.517Z,993.08
2018-05-01T05:12:39.464Z,993.03
2018-05-01T05:13:39.414Z,993.10
2018-05-01T05:14:39.382Z,993.12
2018-05-01T05:15:39.364Z,993.09
2018-05-01T05:16:39.259Z,993.10
2018-05-01T05:17:39.210Z,993.15
2018-05-01T05:18:39.156Z,993.08
2018-05-01T05:19:39.129Z,993.10
2018-05-01T05:20:39.095Z,993.17
2018-05-01T05:21:39.004Z,993.13
2018-05-01T05:22:38.950Z,993.20
2018-05-01T05:23:38.903Z,993.16
2018-05-01T05:24:38.870Z,993.27
2018-05-01T05:25:38.795Z,993.24
2018-05-01T05:26:38.744Z,993.26
2018-05-01T05:27:38.696Z,993.28
2018-05-01T05:28:38.648Z,993.34
2018-05-01T05:29:38.616Z,993.35
2018-05-01T05:30:38.541Z,993.35
2018-05-01T05:31:38.497Z,993.39
2018-05-01T05:32:38.436Z,993.33
2018-05-01T05:33:38.389Z,993.37
2018-05-01T05:34:38.358Z,993.43
2018-05-01T05:35:38.283Z,993.42
2018-05-01T05:36:38.233Z,993.32
2018-05-01T05:37:38.184Z,993.36
2018-05-01T05:38:38.132Z,993.43
2018-05-01T05:39:38.100Z,993.41
2018-05-01T05:40:38.029Z,993.30
2018-05-01T05:41:37.980Z,993.56
2018-05-01T05:42:37.924Z,993.52
2018-05-01T05:43:37.874Z,993.53
2018-05-01T05:44:37.825Z,993.53
2018-05-01T05:45:37.792Z,993.59
2018-05-01T05:46:37.725Z,993.61
2018-05-01T05:47:37.670Z,993.59
2018-05-01T05:48:37.616Z,993.62
2018-05-01T05:49:37.568Z,993.59
2018-05-01T05:50:37.542Z,993.73
2018-05-01T05:51:37.468Z,993.73
2018-05-01T05:52:37.415Z,993.70
2018-05-01T05:53:37.362Z,993.73
2018-05-01T05:54:37.316Z,993.77
2018-05-01T05:55:37.284Z,993.77
2018-05-01T05:56:37.208Z,993.87
2018-05-01T05:57:37.159Z,993.82
2018-05-01T05:58:37.104Z,993.67
2018-05-01T05:59:37.059Z,993.86
2018-05-01T06:00:37.025Z,993.82
2018-05-01T06:01:36.955Z,993.77
2018-05-01T06:02:36.902Z,993.88
2018-05-01T06:03:36.854Z,993.82
2018-05-01T06:04:36.801Z,993.91
2018-05-01T06:05:36.772Z,993.91
2018-05-01T06:06:36.696Z,993.99
2018-05-01T06:07:36.645Z,993.88
2018-05-01T06:08:36.597Z,993.93
2018-05-01T06:09:36.547Z,993.91
2018-05-01T06:10:36.520Z,994.00
2018-05-01T06:11:36.446Z,993.95
2018-05-01T06:12:37.164Z,994.03
2018-05-01T06:13:36.382Z,994.14
2018-05-01T06:14:36.288Z,994.02
2018-05-01T06:15:36.261Z,994.04
2018-05-01T06:16:36.187Z,994.13
2018-05-01T06:17:36.135Z,994.00
2018-05-01T06:18:36.087Z,994.04
2018-05-01T06:19:36.036Z,994.06
2018-05-01T06:20:36.005Z,994.05
2018-05-01T06:21:35.938Z,994.12
2018-05-01T06:22:35.886Z,994.07
2018-05-01T06:23:35.831Z,994.05
2018-05-01T06:24:35.783Z,994.19
2018-05-01T06:25:35.747Z,994.12
2018-05-01T06:26:35.679Z,994.08
2018-05-01T06:27:35.629Z,994.15
2018-05-01T06:28:35.578Z,994.17
2018-05-01T06:29:35.526Z,994.10
2018-05-01T06:30:35.495Z,994.21
2018-05-01T06:31:35.422Z,994.21
2018-05-01T06:32:35.372Z,994.25
2018-05-01T06:33:35.324Z,994.17
2018-05-01T06:34:35.269Z,994.24
2018-05-01T06:35:35.241Z,994.26
2018-05-01T06:36:35.168Z,994.31
2018-05-01T06:37:35.120Z,994.37
2018-05-01T06:38:35.068Z,994.35
2018-05-01T06:39:35.021Z,994.32
2018-05-01T06:40:34.988Z,994.42
2018-05-01T06:41:34.915Z,994.38
2018-05-01T06:42:34.868Z,994.41
2018-05-01T06:43:34.814Z,994.44
2018-05-01T06:44:34.760Z,994.44
2018-05-01T06:45:34.731Z,994.42
2018-05-01T06:46:34.659Z,994.36
2018-05-01T06:47:34.610Z,994.52
2018-05-01T06:48:34.557Z,994.52
2018-05-01T06:49:34.513Z,994.55
2018-05-01T06:50:34.477Z,994.49
2018-05-01T06:51:34.408Z,994.56
2018-05-01T06:52:34.353Z,994.58
2018-05-01T06:53:34.304Z,994.53
2018-05-01T06:54:34.251Z,994.45
2018-05-01T06:55:34.226Z,994.58
2018-05-01T06:56:34.155Z,994.64
2018-05-01T06:57:34.100Z,994.70
2018-05-01T06:58:34.050Z,994.67
2018-05-01T06:59:34.003Z,994.70
2018-05-01T07:00:33.969Z,994.75
2018-05-01T07:01:33.903Z,994.75
2018-05-01T07:02:33.845Z,994.76
2018-05-01T07:03:33.797Z,994.78
2018-05-01T07:04:33.844Z,994.77
2018-05-01T07:05:33.714Z,994.81
2018-05-01T07:06:33.642Z,994.69
2018-05-01T07:07:33.595Z,994.83
2018-05-01T07:08:33.541Z,994.85
2018-05-01T07:09:33.489Z,994.85
2018-05-01T07:10:33.463Z,994.90
2018-05-01T07:11:33.397Z,994.83
2018-05-01T07:12:33.339Z,994.83
2018-05-01T07:13:33.287Z,994.89
2018-05-01T07:14:33.233Z,994.88
2018-05-01T07:15:33.208Z,995.02
2018-05-01T07:16:33.134Z,994.97
2018-05-01T07:17:33.085Z,994.95
2018-05-01T07:18:33.029Z,994.95
2018-05-01T07:19:32.983Z,995.05
2018-05-01T07:20:32.956Z,995.02
2018-05-01T07:21:32.880Z,995.02
2018-05-01T07:22:32.833Z,995.04
2018-05-01T07:23:32.779Z,995.10
2018-05-01T07:24:32.729Z,995.12
2018-05-01T07:25:32.700Z,995.07
2018-05-01T07:26:32.623Z,995.13
2018-05-01T07:27:32.589Z,995.18
2018-05-01T07:28:32.522Z,995.17
2018-05-01T07:29:32.474Z,995.23
2018-05-01T07:30:32.446Z,995.34
2018-05-01T07:31:32.370Z,995.34
2018-05-01T07:32:32.321Z,995.28
2018-05-01T07:33:32.272Z,995.31
2018-05-01T07:34:32.219Z,995.34
2018-05-01T07:35:32.195Z,995.24
2018-05-01T07:36:32.120Z,995.28
2018-05-01T07:37:32.067Z,995.32
2018-05-01T07:38:32.011Z,995.32
2018-05-01T07:39:31.964Z,995.33
2018-05-01T07:40:31.935Z,995.32
2018-05-01T07:41:31.912Z,995.34
2018-05-01T07:42:31.810Z,995.47
2018-05-01T07:43:31.759Z,995.46
2018-05-01T07:44:31.712Z,995.43
2018-05-01T07:45:31.680Z,995.45
2018-05-01T07:46:31.607Z,995.45
2018-05-01T07:47:31.555Z,995.44
2018-05-01T07:48:31.506Z,995.62
2018-05-01T07:49:31.461Z,995.51
2018-05-01T07:50:31.427Z,995.46
2018-05-01T07:51:31.351Z,995.56
2018-05-01T07:52:31.300Z,995.60
2018-05-01T07:53:31.246Z,995.50
2018-05-01T07:54:31.203Z,995.47
2018-05-01T07:55:31.173Z,995.48
2018-05-01T07:56:31.096Z,995.58
2018-05-01T07:57:31.049Z,995.57
2018-05-01T07:58:30.997Z,995.65
2018-05-01T07:59:30.945Z,995.66
2018-05-01T08:00:30.921Z,995.70
2018-05-01T08:01:37.985Z,995.73
2018-05-01T08:02:30.799Z,995.77
2018-05-01T08:03:30.746Z,995.70
2018-05-01T08:04:30.697Z,995.73
2018-05-01T08:05:30.667Z,995.82
2018-05-01T08:06:30.589Z,995.80
2018-05-01T08:07:30.540Z,995.81
2018-05-01T08:08:30.491Z,995.79
2018-05-01T08:09:30.438Z,995.73
2018-05-01T08:10:30.408Z,995.86
2018-05-01T08:11:30.336Z,995.87
2018-05-01T08:12:30.287Z,995.81
2018-05-01T08:13:30.235Z,995.89
2018-05-01T08:14:30.187Z,995.93
2018-05-01T08:15:30.166Z,995.91
2018-05-01T08:16:30.095Z,995.99
2018-05-01T08:17:30.029Z,996.07
2018-05-01T08:18:30.016Z,996.04
2018-05-01T08:19:29.936Z,996.09
2018-05-01T08:20:29.902Z,995.99
2018-05-01T08:21:29.826Z,996.09
2018-05-01T08:22:38.792Z,996.16
2018-05-01T08:23:29.732Z,996.10
2018-05-01T08:24:29.753Z,996.11
2018-05-01T08:25:29.648Z,996.15
2018-05-01T08:26:29.577Z,996.15
2018-05-01T08:27:29.526Z,996.23
2018-05-01T08:28:29.477Z,996.17
2018-05-01T08:29:29.425Z,996.16
2018-05-01T08:30:29.481Z,996.21
2018-05-01T08:31:29.327Z,996.27
2018-05-01T08:32:29.271Z,996.31
2018-05-01T08:33:29.224Z,996.29
2018-05-01T08:34:29.174Z,996.29
2018-05-01T08:35:29.147Z,996.25
2018-05-01T08:36:29.073Z,996.32
2018-05-01T08:37:29.023Z,996.34
2018-05-01T08:38:28.972Z,996.28
2018-05-01T08:39:28.922Z,996.28
2018-05-01T08:40:28.893Z,996.32
2018-05-01T08:41:28.819Z,996.28
2018-05-01T08:42:28.768Z,996.29
2018-05-01T08:43:28.725Z,996.38
2018-05-01T08:44:28.672Z,996.47
2018-05-01T08:45:28.644Z,996.36
2018-05-01T08:46:28.571Z,996.41
2018-05-01T08:47:28.519Z,996.34
2018-05-01T08:48:28.471Z,996.37
2018-05-01T08:49:28.419Z,996.34
2018-05-01T08:50:28.390Z,996.46
2018-05-01T08:51:28.319Z,996.48
2018-05-01T08:52:28.272Z,996.44
2018-05-01T08:53:28.218Z,996.47
2018-05-01T08:54:28.167Z,996.47
2018-05-01T08:55:28.143Z,996.51
2018-05-01T08:56:28.068Z,996.57
2018-05-01T08:57:28.049Z,996.52
2018-05-01T08:58:27.968Z,996.60
2018-05-01T08:59:27.919Z,996.60
2018-05-01T09:00:27.895Z,996.73
2018-05-01T09:01:27.821Z,996.63
2018-05-01T09:02:27.767Z,996.69
2018-05-01T09:03:27.714Z,996.69
2018-05-01T09:04:27.668Z,996.68
2018-05-01T09:05:27.643Z,996.69
2018-05-01T09:06:27.569Z,996.67
2018-05-01T09:07:27.518Z,996.77
2018-05-01T09:08:27.474Z,996.64
2018-05-01T09:09:27.500Z,996.77
2018-05-01T09:10:27.368Z,996.84
2018-05-01T09:11:27.343Z,996.80
2018-05-01T09:12:27.268Z,996.93
2018-05-01T09:13:27.218Z,996.89
2018-05-01T09:14:27.171Z,996.87
2018-05-01T09:15:27.120Z,996.88
2018-05-01T09:16:27.091Z,996.88
2018-05-01T09:17:27.020Z,996.89
2018-05-01T09:18:26.979Z,996.93
2018-05-01T09:19:26.923Z,996.91
2018-05-01T09:20:26.868Z,996.93
2018-05-01T09:21:26.842Z,996.92
2018-05-01T09:22:26.772Z,997.10
2018-05-01T09:23:26.720Z,996.92
2018-05-01T09:24:26.669Z,996.99
2018-05-01T09:25:26.661Z,996.98
2018-05-01T09:26:26.594Z,997.00
2018-05-01T09:27:26.524Z,997.03
2018-05-01T09:28:26.493Z,997.10
2018-05-01T09:29:26.424Z,997.07
2018-05-01T09:30:26.373Z,997.14
2018-05-01T09:31:26.347Z,997.06
2018-05-01T09:32:26.279Z,997.06
2018-05-01T09:33:26.228Z,997.13
2018-05-01T09:34:26.180Z,997.18
2018-05-01T09:35:26.141Z,997.15
2018-05-01T09:36:26.100Z,997.15
2018-05-01T09:37:26.028Z,997.15
2018-05-01T09:38:25.980Z,997.24
2018-05-01T09:39:25.928Z,997.27
2018-05-01T09:40:25.881Z,997.30
2018-05-01T09:41:25.855Z,997.32
2018-05-01T09:42:25.779Z,997.27
2018-05-01T09:43:25.734Z,997.31
2018-05-01T09:44:25.699Z,997.29
2018-05-01T09:45:25.632Z,997.33
2018-05-01T09:46:25.605Z,997.41
2018-05-01T09:47:25.553Z,997.39
2018-05-01T09:48:25.492Z,997.46
2018-05-01T09:49:25.439Z,997.40
2018-05-01T09:50:25.384Z,997.45
2018-05-01T09:51:25.360Z,997.47
2018-05-01T09:52:25.292Z,997.39
2018-05-01T09:53:25.308Z,997.38
2018-05-01T09:54:25.198Z,997.43
2018-05-01T09:55:25.142Z,997.41
2018-05-01T09:56:25.116Z,997.49
2018-05-01T09:57:25.046Z,997.49
2018-05-01T09:58:24.993Z,997.51
2018-05-01T09:59:24.945Z,997.50
2018-05-01T10:00:24.896Z,997.61
2018-05-01T10:01:25.004Z,997.61
2018-05-01T10:02:24.798Z,997.73
2018-05-01T10:03:24.753Z,997.59
2018-05-01T10:04:24.703Z,997.69
2018-05-01T10:05:24.653Z,997.65
2018-05-01T10:06:24.629Z,997.66
2018-05-01T10:07:24.554Z,997.68
2018-05-01T10:08:24.507Z,997.62
2018-05-01T10:09:24.459Z,997.70
2018-05-01T10:10:24.407Z,997.72
2018-05-01T10:11:24.384Z,997.66
2018-05-01T10:12:24.312Z,997.65
2018-05-01T10:13:24.261Z,997.77
2018-05-01T10:14:24.219Z,997.73
2018-05-01T10:15:24.165Z,997.72
2018-05-01T10:16:24.159Z,997.79
2018-05-01T10:17:24.074Z,997.67
2018-05-01T10:18:24.020Z,997.78
2018-05-01T10:19:23.976Z,997.80
2018-05-01T10:20:23.928Z,997.77
2018-05-01T10:21:23.900Z,997.84
2018-05-01T10:22:23.829Z,997.70
2018-05-01T10:23:23.779Z,997.79
2018-05-01T10:24:23.735Z,997.78
2018-05-01T10:25:23.738Z,997.82
2018-05-01T10:26:23.721Z,997.81
2018-05-01T10:27:23.589Z,997.91
2018-05-01T10:28:23.542Z,997.88
2018-05-01T10:29:23.492Z,997.84
2018-05-01T10:30:23.453Z,997.94
2018-05-01T10:31:23.418Z,997.90
2018-05-01T10:32:23.348Z,997.86
2018-05-01T10:33:23.306Z,997.86
2018-05-01T10:34:23.257Z,997.91
2018-05-01T10:35:23.210Z,997.83
2018-05-01T10:36:23.178Z,997.87
2018-05-01T10:37:23.108Z,997.90
2018-05-01T10:38:23.070Z,997.88
2018-05-01T10:39:23.012Z,997.89
2018-05-01T10:40:22.962Z,997.85
2018-05-01T10:41:22.940Z,997.95
2018-05-01T10:42:22.867Z,997.84
2018-05-01T10:43:22.823Z,997.81
2018-05-01T10:44:22.774Z,997.72
2018-05-01T10:45:22.724Z,997.75
2018-05-01T10:46:22.698Z,997.80
2018-05-01T10:47:22.643Z,997.80
2018-05-01T10:48:22.585Z,997.82
2018-05-01T10:49:22.634Z,997.81
2018-05-01T10:50:22.486Z,997.90
2018-05-01T10:51:22.464Z,997.83
2018-05-01T10:52:22.391Z,997.85
2018-05-01T10:53:22.341Z,997.90
2018-05-01T10:54:22.297Z,997.88
2018-05-01T10:55:22.247Z,997.87
2018-05-01T10:56:22.236Z,997.96
2018-05-01T10:57:22.155Z,998.08
2018-05-01T10:58:22.105Z,997.99
2018-05-01T10:59:22.054Z,997.99
2018-05-01T11:00:22.011Z,998.11
2018-05-01T11:01:21.983Z,998.02
2018-05-01T11:02:21.914Z,998.04
2018-05-01T11:03:21.860Z,998.10
2018-05-01T11:04:21.818Z,998.08
2018-05-01T11:05:21.767Z,998.07
2018-05-01T11:06:21.744Z,998.14
2018-05-01T11:07:21.674Z,998.18
2018-05-01T11:08:21.628Z,998.17
2018-05-01T11:09:21.591Z,998.20
2018-05-01T11:10:21.525Z,998.20
2018-05-01T11:11:21.505Z,998.21
2018-05-01T11:12:21.430Z,998.25
2018-05-01T11:13:21.381Z,998.29
2018-05-01T11:14:21.334Z,998.29
2018-05-01T11:15:21.284Z,998.28
2018-05-01T11:16:21.260Z,998.22
2018-05-01T11:17:21.244Z,998.26
2018-05-01T11:18:21.144Z,998.37
2018-05-01T11:19:21.090Z,998.33
2018-05-01T11:20:21.187Z,998.38
2018-05-01T11:21:21.021Z,998.42
2018-05-01T11:22:20.948Z,998.39
2018-05-01T11:23:20.902Z,998.42
2018-05-01T11:24:20.852Z,998.45
2018-05-01T11:25:20.806Z,998.45
2018-05-01T11:26:20.785Z,998.44
2018-05-01T11:27:20.710Z,998.44
2018-05-01T11:28:20.662Z,998.42
2018-05-01T11:29:20.612Z,998.44
2018-05-01T11:30:20.571Z,998.45
2018-05-01T11:31:20.541Z,998.49
2018-05-01T11:32:20.473Z,998.44
2018-05-01T11:33:20.428Z,998.54
2018-05-01T11:34:20.372Z,998.55
2018-05-01T11:35:20.326Z,998.56
2018-05-01T11:36:20.309Z,998.59
2018-05-01T11:37:20.229Z,998.57
2018-05-01T11:38:20.180Z,998.59
2018-05-01T11:39:20.137Z,998.58
2018-05-01T11:40:20.087Z,998.56
2018-05-01T11:41:20.066Z,998.66
2018-05-01T11:42:19.990Z,998.64
2018-05-01T11:43:19.947Z,998.63
2018-05-01T11:44:19.902Z,998.68
2018-05-01T11:45:19.850Z,998.65
2018-05-01T11:46:19.824Z,998.72
2018-05-01T11:47:19.749Z,998.68
2018-05-01T11:48:19.708Z,998.64
2018-05-01T11:49:19.658Z,998.71
2018-05-01T11:50:19.610Z,998.77
2018-05-01T11:51:19.584Z,998.75
2018-05-01T11:52:19.518Z,998.77
2018-05-01T11:53:19.507Z,998.77
2018-05-01T11:54:19.424Z,998.77
2018-05-01T11:55:19.371Z,998.83
2018-05-01T11:56:19.352Z,998.84
2018-05-01T11:57:19.276Z,998.85
2018-05-01T11:58:19.231Z,998.97
2018-05-01T11:59:19.183Z,998.93
2018-05-01T12:00:19.136Z,998.91
2018-05-01T12:01:19.114Z,998.92
2018-05-01T12:02:19.040Z,998.92
2018-05-01T12:03:18.996Z,998.86
2018-05-01T12:04:18.959Z,998.94
2018-05-01T12:05:18.930Z,999.02
2018-05-01T12:06:18.865Z,999.01
2018-05-01T12:07:18.840Z,999.00
2018-05-01T12:08:18.761Z,999.03
2018-05-01T12:09:18.712Z,999.01
2018-05-01T12:10:18.669Z,999.02
2018-05-01T12:11:18.624Z,998.97
2018-05-01T12:12:18.595Z,999.10
2018-05-01T12:13:18.549Z,999.08
2018-05-01T12:14:18.477Z,999.08
2018-05-01T12:15:18.432Z,999.07
2018-05-01T12:16:18.385Z,999.04
2018-05-01T12:17:18.366Z,999.14
2018-05-01T12:18:18.294Z,999.12
2018-05-01T12:19:18.245Z,999.18
2018-05-01T12:20:18.200Z,999.04
2018-05-01T12:21:18.178Z,999.12
2018-05-01T12:22:18.128Z,999.11
2018-05-01T12:23:18.057Z,998.95
2018-05-01T12:24:18.024Z,999.07
2018-05-01T12:25:17.966Z,999.21
2018-05-01T12:26:17.925Z,999.18
2018-05-01T12:27:17.893Z,999.11
2018-05-01T12:28:17.862Z,999.25